createdAt,value
2022-08-28T00:01:33.636Z,98404.03
2022-08-28T00:04:00.122Z,98411.22
2022-08-28T00:06:26.711Z,98407.03
2022-08-28T00:08:53.065Z,98409.69
2022-08-28T00:11:21.077Z,98419.50
2022-08-28T00:13:47.766Z,98419.41
2022-08-28T00:16:14.240Z,98411.44
2022-08-28T00:18:40.613Z,98415.84
2022-08-28T00:21:07.322Z,98410.91
2022-08-28T00:23:42.739Z,98413.19
2022-08-28T00:26:09.965Z,98419.03
2022-08-28T00:28:36.312Z,98415.31
2022-08-28T00:31:02.807Z,98412.16
2022-08-28T00:33:30.416Z,98417.00
2022-08-28T00:35:56.981Z,98425.38
2022-08-28T00:38:23.574Z,98415.81
2022-08-28T00:40:52.458Z,98421.63
2022-08-28T00:43:26.834Z,98416.94
2022-08-28T00:45:53.305Z,98420.34
2022-08-28T00:48:19.678Z,98407.81
2022-08-28T00:51:04.531Z,98412.34
2022-08-28T00:53:33.127Z,98415.31
2022-08-28T00:56:00.101Z,98413.94
2022-08-28T00:58:26.449Z,98415.13
2022-08-28T01:00:52.841Z,98418.72
2022-08-28T01:03:19.191Z,98417.03
2022-08-28T01:05:49.159Z,98420.25
2022-08-28T01:08:15.853Z,98418.13
2022-08-28T01:10:45.098Z,98413.25
2022-08-28T01:13:11.594Z,98410.75
2022-08-28T01:15:37.976Z,98411.38
2022-08-28T01:18:08.566Z,98413.25
2022-08-28T01:20:35.571Z,98413.53
2022-08-28T01:23:08.025Z,98415.88
2022-08-28T01:25:34.838Z,98422.16
2022-08-28T01:28:01.440Z,98417.66
2022-08-28T01:30:28.932Z,98416.03
2022-08-28T01:32:55.527Z,98425.03
2022-08-28T01:35:22.858Z,98429.00
2022-08-28T01:37:49.258Z,98433.31
2022-08-28T01:40:17.699Z,98433.56
2022-08-28T01:42:44.507Z,98426.28
2022-08-28T01:45:12.218Z,98434.22
2022-08-28T01:47:38.759Z,98433.84
2022-08-28T01:50:06.411Z,98437.59
2022-08-28T01:52:32.815Z,98425.50
2022-08-28T01:54:59.719Z,98430.97
2022-08-28T01:57:26.286Z,98428.56
2022-08-28T01:59:54.310Z,98421.75
2022-08-28T02:02:20.768Z,98430.63
2022-08-28T02:04:48.292Z,98430.75
2022-08-28T02:07:16.789Z,98437.88
2022-08-28T02:09:43.176Z,98432.06
2022-08-28T02:12:09.579Z,98436.47
2022-08-28T02:14:36.005Z,98439.91
2022-08-28T02:17:02.966Z,98440.78
2022-08-28T02:19:30.239Z,98438.28
2022-08-28T02:21:56.610Z,98443.13
2022-08-28T02:24:23.215Z,98446.59
2022-08-28T02:26:49.581Z,98448.81
2022-08-28T02:29:15.941Z,98445.00
2022-08-28T02:31:43.102Z,98438.31
2022-08-28T02:34:11.375Z,98433.31
2022-08-28T02:36:39.857Z,98442.50
2022-08-28T02:39:06.201Z,98430.78
2022-08-28T02:41:32.969Z,98436.28
2022-08-28T02:43:59.529Z,98434.72
2022-08-28T02:46:26.548Z,98435.66
2022-08-28T02:48:52.988Z,98436.88
2022-08-28T02:51:20.129Z,98435.66
2022-08-28T02:53:46.473Z,98436.88
2022-08-28T02:56:13.069Z,98435.28
2022-08-28T02:58:39.500Z,98438.91
2022-08-28T03:01:06.971Z,98427.91
2022-08-28T03:03:33.497Z,98433.84
2022-08-28T03:06:00.379Z,98444.91
2022-08-28T03:08:27.286Z,98444.84
2022-08-28T03:10:53.876Z,98441.44
2022-08-28T03:13:26.430Z,98435.13
2022-08-28T03:15:55.703Z,98440.00
2022-08-28T03:18:22.547Z,98442.31
2022-08-28T03:20:48.932Z,98438.28
2022-08-28T03:23:27.279Z,98440.78
2022-08-28T03:25:56.526Z,98442.69
2022-08-28T03:28:23.449Z,98437.25
2022-08-28T03:30:50.610Z,98451.25
2022-08-28T03:33:17.087Z,98441.25
2022-08-28T03:35:43.748Z,98444.47
2022-08-28T03:38:11.576Z,98437.44
2022-08-28T03:40:39.024Z,98439.41
2022-08-28T03:43:06.970Z,98439.59
2022-08-28T03:45:33.500Z,98441.75
2022-08-28T03:47:59.934Z,98432.47
2022-08-28T03:50:26.333Z,98443.31
2022-08-28T03:52:55.335Z,98442.81
2022-08-28T03:55:22.625Z,98443.16
2022-08-28T03:57:48.979Z,98450.00
2022-08-28T04:00:16.348Z,98450.84
2022-08-28T04:02:42.770Z,98449.59
2022-08-28T04:05:09.530Z,98454.97
2022-08-28T04:07:36.106Z,98446.41
2022-08-28T04:10:02.612Z,98464.28
2022-08-28T04:12:29.121Z,98464.34
2022-08-28T04:15:01.058Z,98461.00
2022-08-28T04:17:27.429Z,98458.56
2022-08-28T04:19:53.972Z,98465.97
2022-08-28T04:22:20.335Z,98469.56
2022-08-28T04:24:50.031Z,98470.22
2022-08-28T04:27:16.653Z,98472.13
2022-08-28T04:29:43.014Z,98462.97
2022-08-28T04:32:09.523Z,98469.78
2022-08-28T04:34:36.872Z,98468.25
2022-08-28T04:37:03.279Z,98472.56
2022-08-28T04:39:29.642Z,98471.84
2022-08-28T04:41:56.079Z,98471.31
2022-08-28T04:44:22.427Z,98460.16
2022-08-28T04:46:48.811Z,98473.47
2022-08-28T04:49:16.163Z,98471.41
2022-08-28T04:51:42.532Z,98479.88
2022-08-28T04:54:10.745Z,98478.50
2022-08-28T04:56:37.757Z,98480.03
2022-08-28T04:59:04.297Z,98488.47
2022-08-28T05:01:30.720Z,98492.44
2022-08-28T05:03:58.135Z,98484.97
2022-08-28T05:06:26.839Z,98492.09
2022-08-28T05:08:54.608Z,98494.63
2022-08-28T05:11:33.360Z,98486.31
2022-08-28T05:14:00.343Z,98490.78
2022-08-28T05:16:26.844Z,98490.94
2022-08-28T05:18:53.583Z,98479.47
2022-08-28T05:21:23.061Z,98494.81
2022-08-28T05:23:49.886Z,98492.38
2022-08-28T05:26:16.491Z,98494.88
2022-08-28T05:28:42.871Z,98491.91
2022-08-28T05:31:13.195Z,98489.19
2022-08-28T05:33:39.606Z,98495.31
2022-08-28T05:36:06.516Z,98492.88
2022-08-28T05:38:33.685Z,98498.16
2022-08-28T05:41:00.231Z,98489.84
2022-08-28T05:43:26.654Z,98496.19
2022-08-28T05:45:57.891Z,98489.19
2022-08-28T05:48:26.243Z,98495.56
2022-08-28T05:50:58.341Z,98501.69
2022-08-28T05:53:25.682Z,98504.94
2022-08-28T05:55:52.467Z,98506.47
2022-08-28T05:58:31.372Z,98503.88
2022-08-28T06:01:10.075Z,98495.91
2022-08-28T06:03:37.400Z,98518.38
2022-08-28T06:06:04.287Z,98508.19
2022-08-28T06:08:31.349Z,98511.81
2022-08-28T06:10:57.906Z,98505.84
2022-08-28T06:13:24.310Z,98508.53
2022-08-28T06:15:51.022Z,98513.16
2022-08-28T06:18:17.613Z,98515.53
2022-08-28T06:20:44.868Z,98516.03
2022-08-28T06:23:12.830Z,98520.00
2022-08-28T06:25:45.733Z,98522.28
2022-08-28T06:28:12.232Z,98527.44
2022-08-28T06:30:40.098Z,98521.81
2022-08-28T06:33:08.205Z,98530.19
2022-08-28T06:35:34.564Z,98529.81
2022-08-28T06:38:00.939Z,98532.66
2022-08-28T06:40:27.332Z,98539.72
2022-08-28T06:42:53.727Z,98533.63
2022-08-28T06:45:20.089Z,98536.97
2022-08-28T06:47:47.143Z,98539.06
2022-08-28T06:50:15.783Z,98548.66
2022-08-28T06:52:42.187Z,98544.00
2022-08-28T06:55:08.690Z,98547.59
2022-08-28T06:57:36.951Z,98546.13
2022-08-28T07:00:03.560Z,98549.78
2022-08-28T07:02:29.970Z,98550.66
2022-08-28T07:04:56.387Z,98542.97
2022-08-28T07:07:31.854Z,98553.31
2022-08-28T07:09:59.097Z,98553.34
2022-08-28T07:12:25.491Z,98553.88
2022-08-28T07:14:51.866Z,98561.59
2022-08-28T07:17:18.275Z,98562.66
2022-08-28T07:19:44.624Z,98557.19
2022-08-28T07:22:11.011Z,98559.63
2022-08-28T07:24:37.435Z,98555.56
2022-08-28T07:27:05.542Z,98557.63
2022-08-28T07:29:38.988Z,98552.03
2022-08-28T07:32:05.493Z,98559.72
2022-08-28T07:34:31.849Z,98566.59
2022-08-28T07:37:03.732Z,98560.84
2022-08-28T07:39:30.162Z,98563.31
2022-08-28T07:41:56.536Z,98566.31
2022-08-28T07:44:41.623Z,98564.63
2022-08-28T07:47:08.905Z,98560.19
2022-08-28T07:49:35.401Z,98567.25
2022-08-28T07:52:01.816Z,98571.19
2022-08-28T07:54:28.162Z,98572.75
2022-08-28T07:56:55.115Z,98575.41
2022-08-28T07:59:22.028Z,98574.88
2022-08-28T08:01:48.713Z,98578.31
2022-08-28T08:04:16.064Z,98569.38
2022-08-28T08:06:42.631Z,98576.94
2022-08-28T08:09:09.685Z,98585.31
2022-08-28T08:11:36.223Z,98580.38
2022-08-28T08:14:04.659Z,98586.25
2022-08-28T08:16:34.460Z,98589.22
2022-08-28T08:19:00.940Z,98585.44
2022-08-28T08:21:30.309Z,98581.88
2022-08-28T08:23:57.183Z,98586.09
2022-08-28T08:26:24.186Z,98583.84
2022-08-28T08:28:50.750Z,98592.06
2022-08-28T08:31:18.349Z,98598.09
2022-08-28T08:33:45.631Z,98592.41
2022-08-28T08:36:12.355Z,98599.47
2022-08-28T08:38:38.798Z,98598.03
2022-08-28T08:41:06.802Z,98597.13
2022-08-28T08:43:34.296Z,98597.03
2022-08-28T08:46:00.685Z,98599.84
2022-08-28T08:48:28.122Z,98598.69
2022-08-28T08:50:54.797Z,98592.50
2022-08-28T08:53:28.787Z,98598.81
2022-08-28T08:55:55.421Z,98601.69
2022-08-28T08:58:38.354Z,98600.31
2022-08-28T09:01:08.066Z,98608.97
2022-08-28T09:03:49.410Z,98609.38
2022-08-28T09:06:21.813Z,98606.19
2022-08-28T09:08:49.032Z,98606.19
2022-08-28T09:11:29.276Z,98610.22
2022-08-28T09:14:01.442Z,98606.88
2022-08-28T09:16:37.767Z,98610.09
2022-08-28T09:19:04.194Z,98614.56
2022-08-28T09:21:31.886Z,98607.66
2022-08-28T09:24:05.631Z,98606.47
2022-08-28T09:26:33.614Z,98605.06
2022-08-28T09:29:18.483Z,98609.25
2022-08-28T09:31:44.865Z,98615.75
2022-08-28T09:34:33.380Z,98617.88
2022-08-28T09:37:01.993Z,98615.09
2022-08-28T09:39:32.050Z,98615.50
2022-08-28T09:42:19.881Z,98627.91
2022-08-28T09:44:51.374Z,98624.59
2022-08-28T09:47:46.464Z,98617.06
2022-08-28T09:50:41.618Z,98617.88
2022-08-28T09:53:11.558Z,98617.50
2022-08-28T09:55:44.274Z,98607.91
2022-08-28T09:58:10.627Z,98615.91
2022-08-28T10:00:41.040Z,98597.81
2022-08-28T10:03:10.544Z,98599.75
2022-08-28T10:06:15.576Z,98610.25
2022-08-28T10:08:44.788Z,98606.69
2022-08-28T10:11:15.235Z,98611.53
2022-08-28T10:13:59.889Z,98605.50
2022-08-28T10:16:30.201Z,98614.72
2022-08-28T10:19:01.316Z,98611.06
2022-08-28T10:21:31.514Z,98619.88
2022-08-28T10:24:12.913Z,98615.09
2022-08-28T10:26:48.487Z,98610.97
2022-08-28T10:29:29.104Z,98614.22
2022-08-28T10:32:14.472Z,98616.66
2022-08-28T10:34:47.511Z,98614.88
2022-08-28T10:37:16.809Z,98617.56
2022-08-28T10:39:56.362Z,98620.19
2022-08-28T10:42:26.684Z,98616.78
2022-08-28T10:45:06.938Z,98620.84
2022-08-28T10:47:34.318Z,98607.78
2022-08-28T10:50:01.876Z,98615.34
2022-08-28T10:52:32.718Z,98611.25
2022-08-28T10:55:19.006Z,98617.78
2022-08-28T10:57:49.008Z,98611.28
2022-08-28T11:00:16.886Z,98606.81
2022-08-28T11:02:54.750Z,98606.94
2022-08-28T11:05:40.440Z,98607.09
2022-08-28T11:08:07.887Z,98607.22
2022-08-28T11:10:37.242Z,98613.88
2022-08-28T11:13:04.348Z,98608.13
2022-08-28T11:15:36.811Z,98611.59
2022-08-28T11:18:15.881Z,98615.69
2022-08-28T11:20:42.978Z,98617.28
2022-08-28T11:23:13.266Z,98616.00
2022-08-28T11:25:49.083Z,98627.06
2022-08-28T11:28:17.793Z,98621.47
2022-08-28T11:30:46.247Z,98614.16
2022-08-28T11:33:31.255Z,98627.97
2022-08-28T11:35:57.843Z,98611.94
2022-08-28T11:38:59.410Z,98611.59
2022-08-28T11:41:36.481Z,98616.25
2022-08-28T11:44:14.968Z,98618.22
2022-08-28T11:46:41.305Z,98617.56
2022-08-28T11:49:29.173Z,98613.22
2022-08-28T11:52:07.707Z,98622.88
2022-08-28T11:54:37.677Z,98613.41
2022-08-28T11:57:08.422Z,98606.59
2022-08-28T11:59:38.363Z,98606.25
2022-08-28T12:02:23.636Z,98623.81
2022-08-28T12:04:50.442Z,98619.66
2022-08-28T12:07:18.378Z,98613.63
2022-08-28T12:09:45.376Z,98609.41
2022-08-28T12:12:20.792Z,98617.31
2022-08-28T12:14:47.370Z,98613.31
2022-08-28T12:17:17.596Z,98619.31
2022-08-28T12:19:51.243Z,98610.03
2022-08-28T12:22:24.328Z,98621.72
2022-08-28T12:24:52.206Z,98624.81
2022-08-28T12:27:18.583Z,98612.88
2022-08-28T12:29:44.869Z,98620.72
2022-08-28T12:32:16.382Z,98616.53
2022-08-28T12:34:58.011Z,98619.03
2022-08-28T12:37:52.298Z,98616.16
2022-08-28T12:40:25.352Z,98608.50
2022-08-28T12:42:58.310Z,98622.84
2022-08-28T12:45:24.641Z,98605.38
2022-08-28T12:47:51.446Z,98614.28
2022-08-28T12:50:20.569Z,98608.53
2022-08-28T12:52:50.490Z,98610.16
2022-08-28T12:55:20.280Z,98607.97
2022-08-28T12:57:49.409Z,98609.72
2022-08-28T13:00:16.895Z,98606.66
2022-08-28T13:02:47.556Z,98613.47
2022-08-28T13:05:26.227Z,98618.56
2022-08-28T13:07:52.596Z,98616.47
2022-08-28T13:10:20.627Z,98611.75
2022-08-28T13:12:54.912Z,98614.72
2022-08-28T13:15:42.284Z,98609.91
2022-08-28T13:18:08.641Z,98603.75
2022-08-28T13:20:35.985Z,98596.56
2022-08-28T13:23:02.594Z,98609.34
2022-08-28T13:25:31.012Z,98609.69
2022-08-28T13:28:02.871Z,98610.47
2022-08-28T13:30:30.190Z,98619.13
2022-08-28T13:33:01.203Z,98609.41
2022-08-28T13:35:27.518Z,98606.09
2022-08-28T13:37:57.934Z,98601.97
2022-08-28T13:43:13.614Z,98597.06
2022-08-28T13:45:43.501Z,98603.28
2022-08-28T13:48:14.564Z,98602.94
2022-08-28T13:50:42.169Z,98605.47
2022-08-28T13:53:11.287Z,98598.34
2022-08-28T13:55:38.940Z,98600.78
2022-08-28T13:58:05.359Z,98599.38
2022-08-28T14:00:31.843Z,98598.84
2022-08-28T14:03:16.879Z,98590.63
2022-08-28T14:05:44.336Z,98592.25
2022-08-28T14:08:11.005Z,98584.75
2022-08-28T14:10:37.354Z,98587.38
2022-08-28T14:13:03.701Z,98585.84
2022-08-28T14:15:30.055Z,98597.16
2022-08-28T14:17:56.697Z,98588.06
2022-08-28T14:20:23.197Z,98587.06
2022-08-28T14:22:49.608Z,98593.00
2022-08-28T14:25:15.956Z,98592.25
2022-08-28T14:27:42.343Z,98591.88
2022-08-28T14:30:08.950Z,98581.56
2022-08-28T14:32:37.795Z,98579.31
2022-08-28T14:35:04.589Z,98575.44
2022-08-28T14:37:30.966Z,98575.44
2022-08-28T14:39:57.360Z,98578.41
2022-08-28T14:42:23.803Z,98574.72
2022-08-28T14:44:50.160Z,98571.03
2022-08-28T14:47:16.603Z,98571.72
2022-08-28T14:49:43.271Z,98564.94
2022-08-28T14:52:09.669Z,98568.94
2022-08-28T14:54:36.054Z,98566.41
2022-08-28T14:57:02.502Z,98564.19
2022-08-28T14:59:29.454Z,98554.00
2022-08-28T15:01:58.059Z,98558.34
2022-08-28T15:04:24.765Z,98566.84
2022-08-28T15:06:51.547Z,98566.97
2022-08-28T15:09:17.935Z,98570.03
2022-08-28T15:11:44.458Z,98556.66
2022-08-28T15:14:11.016Z,98575.75
2022-08-28T15:16:46.812Z,98570.84
2022-08-28T15:19:15.854Z,98572.47
2022-08-28T15:21:43.080Z,98568.72
2022-08-28T15:24:09.952Z,98573.25
2022-08-28T15:26:37.790Z,98562.97
2022-08-28T15:29:04.218Z,98577.13
2022-08-28T15:31:31.237Z,98568.75
2022-08-28T15:33:57.703Z,98576.41
2022-08-28T15:36:24.127Z,98573.97
2022-08-28T15:39:09.319Z,98574.41
2022-08-28T15:41:36.987Z,98565.63
2022-08-28T15:44:03.375Z,98568.09
2022-08-28T15:46:31.565Z,98563.72
2022-08-28T15:48:58.138Z,98567.84
2022-08-28T15:51:26.004Z,98573.47
2022-08-28T15:53:52.712Z,98568.28
2022-08-28T15:56:19.352Z,98577.59
2022-08-28T15:58:45.738Z,98567.53
2022-08-28T16:01:12.133Z,98575.97
2022-08-28T16:03:38.808Z,98576.41
2022-08-28T16:06:09.582Z,98572.81
2022-08-28T16:08:35.974Z,98562.41
2022-08-28T16:11:02.334Z,98578.09
2022-08-28T16:13:28.722Z,98578.09
2022-08-28T16:15:55.342Z,98576.94
2022-08-28T16:18:21.746Z,98568.06
2022-08-28T16:20:48.113Z,98582.94
2022-08-28T16:23:14.487Z,98582.56
2022-08-28T16:25:41.198Z,98587.38
2022-08-28T16:28:07.690Z,98582.56
2022-08-28T16:30:35.813Z,98590.22
2022-08-28T16:33:02.843Z,98585.81
2022-08-28T16:35:29.222Z,98581.38
2022-08-28T16:37:56.014Z,98585.81
2022-08-28T16:40:22.490Z,98581.41
2022-08-28T16:42:51.578Z,98582.59
2022-08-28T16:45:18.580Z,98583.41
2022-08-28T16:47:44.986Z,98579.81
2022-08-28T16:50:11.897Z,98587.03
2022-08-28T16:52:38.384Z,98578.97
2022-08-28T16:55:04.918Z,98578.56
2022-08-28T16:57:31.324Z,98571.31
2022-08-28T16:59:57.697Z,98570.94
2022-08-28T17:02:25.361Z,98566.09
2022-08-28T17:04:53.304Z,98572.03
2022-08-28T17:07:19.808Z,98572.03
2022-08-28T17:09:46.197Z,98569.63
2022-08-28T17:12:12.872Z,98570.88
2022-08-28T17:14:39.237Z,98564.03
2022-08-28T17:17:05.592Z,98570.41
2022-08-28T17:19:31.982Z,98568.84
2022-08-28T17:22:17.204Z,98566.75
2022-08-28T17:24:43.563Z,98569.84
2022-08-28T17:27:14.424Z,98566.31
2022-08-28T17:29:48.142Z,98578.72
2022-08-28T17:32:14.602Z,98572.63
2022-08-28T17:34:41.077Z,98572.19
2022-08-28T17:37:07.504Z,98581.00
2022-08-28T17:39:33.984Z,98580.59
2022-08-28T17:42:00.386Z,98582.91
2022-08-28T17:44:26.801Z,98577.94
2022-08-28T17:46:53.403Z,98579.00
2022-08-28T17:49:19.872Z,98580.28
2022-08-28T17:51:46.228Z,98588.75
2022-08-28T17:54:13.088Z,98591.00
2022-08-28T17:56:40.093Z,98579.56
2022-08-28T17:59:06.592Z,98585.81
2022-08-28T18:01:33.097Z,98593.09
2022-08-28T18:03:59.627Z,98588.63
2022-08-28T18:06:26.814Z,98593.34
2022-08-28T18:08:53.214Z,98591.59
2022-08-28T18:11:19.621Z,98590.63
2022-08-28T18:13:46.550Z,98586.84
2022-08-28T18:16:13.187Z,98589.91
2022-08-28T18:18:39.662Z,98590.81
2022-08-28T18:21:06.080Z,98594.22
2022-08-28T18:23:32.499Z,98589.03
2022-08-28T18:25:58.916Z,98594.13
2022-08-28T18:28:26.560Z,98591.31
2022-08-28T18:30:53.033Z,98590.28
2022-08-28T18:33:20.298Z,98591.53
2022-08-28T18:35:49.401Z,98594.31
2022-08-28T18:38:16.174Z,98597.81
2022-08-28T18:40:42.848Z,98596.19
2022-08-28T18:43:09.330Z,98603.28
2022-08-28T18:45:35.774Z,98599.53
2022-08-28T18:48:02.386Z,98604.06
2022-08-28T18:50:29.143Z,98603.28
2022-08-28T18:52:55.518Z,98611.78
2022-08-28T18:55:22.500Z,98605.69
2022-08-28T18:57:50.247Z,98621.59
2022-08-28T19:00:18.381Z,98618.22
2022-08-28T19:02:44.960Z,98627.81
2022-08-28T19:05:11.722Z,98626.91
2022-08-28T19:07:38.124Z,98628.50
2022-08-28T19:10:05.165Z,98626.16
2022-08-28T19:12:31.549Z,98629.34
2022-08-28T19:14:58.692Z,98638.75
2022-08-28T19:17:25.240Z,98641.91
2022-08-28T19:19:51.634Z,98641.75
2022-08-28T19:22:17.997Z,98645.00
2022-08-28T19:24:44.414Z,98647.69
2022-08-28T19:27:10.820Z,98652.94
2022-08-28T19:29:37.806Z,98648.88
2022-08-28T19:32:04.739Z,98656.19
2022-08-28T19:34:32.193Z,98665.28
2022-08-28T19:36:59.218Z,98667.81
2022-08-28T19:39:26.008Z,98664.25
2022-08-28T19:41:52.533Z,98669.09
2022-08-28T19:44:18.971Z,98659.84
2022-08-28T19:46:45.803Z,98670.28
2022-08-28T19:49:12.209Z,98669.97
2022-08-28T19:51:39.040Z,98675.88
2022-08-28T19:54:05.744Z,98671.16
2022-08-28T19:56:32.701Z,98669.28
2022-08-28T19:59:00.421Z,98671.97
2022-08-28T20:01:29.752Z,98690.44
2022-08-28T20:03:59.437Z,98682.16
2022-08-28T20:06:26.044Z,98682.66
2022-08-28T20:08:52.426Z,98690.16
2022-08-28T20:11:24.923Z,98687.75
2022-08-28T20:13:54.697Z,98686.03
2022-08-28T20:16:21.425Z,98694.50
2022-08-28T20:18:49.814Z,98689.81
2022-08-28T20:21:16.174Z,98697.41
2022-08-28T20:23:49.512Z,98689.94
2022-08-28T20:26:15.912Z,98699.84
2022-08-28T20:28:42.483Z,98697.28
2022-08-28T20:31:12.812Z,98696.78
2022-08-28T20:33:39.292Z,98697.88
2022-08-28T20:36:06.121Z,98704.13
2022-08-28T20:38:37.388Z,98694.84
2022-08-28T20:41:07.485Z,98709.63
2022-08-28T20:43:34.117Z,98719.16
2022-08-28T20:46:00.932Z,98716.81
2022-08-28T20:48:27.592Z,98708.94
2022-08-28T20:50:55.863Z,98716.47
2022-08-28T20:53:27.313Z,98715.41
2022-08-28T20:56:04.753Z,98722.16
2022-08-28T20:58:31.231Z,98722.16
2022-08-28T21:00:59.590Z,98725.69
2022-08-28T21:03:28.380Z,98713.72
2022-08-28T21:05:55.143Z,98724.53
2022-08-28T21:08:21.535Z,98723.88
2022-08-28T21:10:47.943Z,98727.38
2022-08-28T21:13:14.934Z,98732.25
2022-08-28T21:15:41.478Z,98728.88
2022-08-28T21:18:10.486Z,98725.09
2022-08-28T21:20:38.620Z,98729.78
2022-08-28T21:23:05.921Z,98736.41
2022-08-28T21:25:32.292Z,98730.75
2022-08-28T21:27:58.650Z,98730.47
2022-08-28T21:30:31.911Z,98730.22
2022-08-28T21:32:58.324Z,98734.22
2022-08-28T21:35:24.759Z,98728.44
2022-08-28T21:37:51.225Z,98728.81
2022-08-28T21:40:17.829Z,98726.59
2022-08-28T21:42:44.315Z,98724.16
2022-08-28T21:45:12.255Z,98727.16
2022-08-28T21:47:38.864Z,98730.63
2022-08-28T21:50:05.855Z,98711.09
2022-08-28T21:52:32.217Z,98723.88
2022-08-28T21:54:59.204Z,98725.41
2022-08-28T21:57:25.632Z,98722.06
2022-08-28T21:59:52.016Z,98728.00
2022-08-28T22:02:18.434Z,98731.34
2022-08-28T22:04:44.854Z,98727.91
2022-08-28T22:07:12.014Z,98731.06
2022-08-28T22:09:38.434Z,98721.25
2022-08-28T22:12:04.822Z,98724.84
2022-08-28T22:14:31.201Z,98723.38
2022-08-28T22:16:57.629Z,98726.16
2022-08-28T22:19:24.071Z,98727.44
2022-08-28T22:22:09.138Z,98711.78
2022-08-28T22:24:36.565Z,98712.13
2022-08-28T22:27:03.095Z,98710.00
2022-08-28T22:29:36.304Z,98717.25
2022-08-28T22:32:03.643Z,98709.69
2022-08-28T22:34:30.044Z,98711.81
2022-08-28T22:36:56.410Z,98714.97
2022-08-28T22:39:22.781Z,98716.47
2022-08-28T22:41:49.182Z,98713.13
2022-08-28T22:44:15.571Z,98716.38
2022-08-28T22:46:41.943Z,98710.16
2022-08-28T22:49:08.326Z,98714.34
2022-08-28T22:51:34.795Z,98708.03
2022-08-28T22:54:01.168Z,98713.41
2022-08-28T22:56:27.532Z,98700.66
2022-08-28T22:58:53.924Z,98709.59
2022-08-28T23:01:21.409Z,98706.94
2022-08-28T23:03:47.872Z,98710.00
2022-08-28T23:06:14.371Z,98721.56
2022-08-28T23:08:40.917Z,98716.09
2022-08-28T23:11:07.318Z,98716.81
2022-08-28T23:13:33.975Z,98717.16
2022-08-28T23:16:00.361Z,98719.13
2022-08-28T23:18:26.735Z,98709.59
2022-08-28T23:20:55.234Z,98704.44
2022-08-28T23:23:22.505Z,98707.84
2022-08-28T23:25:50.400Z,98706.69
2022-08-28T23:28:16.971Z,98696.63
2022-08-28T23:30:48.279Z,98704.88
2022-08-28T23:33:18.561Z,98706.31
2022-08-28T23:35:49.665Z,98710.69
2022-08-28T23:38:16.263Z,98704.56
2022-08-28T23:40:42.808Z,98700.03
2022-08-28T23:43:10.042Z,98693.44
2022-08-28T23:45:38.665Z,98699.91
2022-08-28T23:48:05.145Z,98698.41
2022-08-28T23:50:31.675Z,98701.31
2022-08-28T23:52:58.045Z,98696.97
2022-08-28T23:55:27.062Z,98694.41
2022-08-28T23:57:54.194Z,98691.91
